Time;durP1;ratioP1;P1;durP2;ratioP2;P2;SDS_P1;SDS_P2;PMS_P1;PMS_P2;Temp;Humidity;BMP_temperature;BMP_pressure;BME280_temperature;BME280_humidity;BME280_pressure;Samples;Min_cycle;Max_cycle;Signal;HPM_P1;HPM_P2
2021/05/14 00:01:50;;;;;;;1.10;1.00;;;17.40;71.60;;;;;;5032992;28;20397;-48
2021/05/14 00:04:19;;;;;;;2.03;1.08;;;17.50;71.60;;;;;;5032024;28;20050;-49
2021/05/14 00:06:46;;;;;;;1.30;1.20;;;17.50;71.60;;;;;;5031861;28;20053;-47
2021/05/14 00:09:12;;;;;;;1.20;1.10;;;17.40;71.60;;;;;;5031857;28;20041;-46
2021/05/14 00:11:38;;;;;;;1.10;1.05;;;17.40;72.20;;;;;;5032053;28;20053;-45
2021/05/14 00:14:04;;;;;;;1.20;1.10;;;17.40;71.60;;;;;;5032870;28;20473;-47
2021/05/14 00:16:30;;;;;;;2.13;1.30;;;17.40;71.60;;;;;;5031926;28;20060;-45
2021/05/14 00:18:56;;;;;;;1.30;1.20;;;17.50;71.70;;;;;;5031751;28;20049;-47
2021/05/14 00:21:22;;;;;;;1.23;1.13;;;17.40;71.60;;;;;;5032119;28;20103;-45
2021/05/14 00:23:48;;;;;;;1.10;1.00;;;17.40;71.60;;;;;;5032526;28;20041;-46
2021/05/14 00:26:13;;;;;;;1.27;1.00;;;17.40;71.60;;;;;;5031613;28;20068;-48
2021/05/14 00:28:39;;;;;;;1.08;0.98;;;17.40;71.70;;;;;;5031690;28;20041;-45
2021/05/14 00:31:05;;;;;;;1.20;1.10;;;17.40;71.60;;;;;;5031998;28;20057;-46
2021/05/14 00:33:31;;;;;;;1.20;1.10;;;17.40;71.70;;;;;;5032822;28;20046;-48
2021/05/14 00:35:57;;;;;;;0.90;0.90;;;17.40;71.60;;;;;;5031625;28;20061;-45
2021/05/14 00:38:23;;;;;;;2.13;1.40;;;17.40;71.70;;;;;;5031486;28;20068;-46
2021/05/14 00:40:48;;;;;;;1.30;1.08;;;17.40;71.70;;;;;;5031649;28;20048;-48
2021/05/14 00:43:14;;;;;;;1.35;1.23;;;17.40;71.70;;;;;;5031431;28;20115;-47
2021/05/14 00:45:40;;;;;;;1.70;1.17;;;17.40;71.70;;;;;;5032592;28;20061;-46
2021/05/14 00:48:05;;;;;;;1.15;1.05;;;17.30;71.60;;;;;;5040420;28;20453;-45
2021/05/14 00:50:31;;;;;;;1.55;1.10;;;17.40;71.70;;;;;;5054317;28;20051;-49
2021/05/14 00:52:57;;;;;;;1.10;1.00;;;17.40;71.70;;;;;;5055226;28;20076;-48
2021/05/14 00:55:23;;;;;;;0.88;0.88;;;17.30;71.70;;;;;;5054598;28;20052;-46
2021/05/14 00:57:49;;;;;;;1.25;1.00;;;17.40;71.70;;;;;;5054948;28;20090;-47
2021/05/14 01:00:16;;;;;;;0.95;0.85;;;17.40;71.70;;;;;;5053311;28;20507;-46
2021/05/14 01:02:42;;;;;;;1.13;1.02;;;17.40;71.70;;;;;;5055135;28;20103;-49
2021/05/14 01:05:08;;;;;;;1.00;0.95;;;17.30;71.70;;;;;;5055060;28;20052;-47
2021/05/14 01:07:34;;;;;;;1.30;1.20;;;17.30;71.70;;;;;;5054861;28;20045;-47
2021/05/14 01:10:00;;;;;;;1.00;1.00;;;17.30;71.70;;;;;;5052916;28;20095;-48
2021/05/14 01:12:26;;;;;;;1.48;1.23;;;17.30;71.70;;;;;;5054692;28;20132;-48
2021/05/14 01:14:52;;;;;;;1.20;1.10;;;17.30;71.70;;;;;;5054947;28;20087;-45
2021/05/14 01:17:17;;;;;;;1.20;1.10;;;17.30;71.70;;;;;;5054881;28;20094;-48
2021/05/14 01:19:43;;;;;;;1.60;1.30;;;17.30;71.70;;;;;;5054314;28;20115;-45
2021/05/14 01:22:09;;;;;;;1.35;1.25;;;17.40;71.80;;;;;;5053417;28;20041;-51
2021/05/14 01:24:35;;;;;;;1.23;1.10;;;17.40;71.80;;;;;;5054509;28;20485;-48
2021/05/14 01:27:02;;;;;;;2.15;1.13;;;17.30;71.70;;;;;;5054865;28;20079;-50
2021/05/14 01:29:28;;;;;;;1.10;1.00;;;17.30;71.70;;;;;;5036628;28;20460;-49
2021/05/14 01:31:54;;;;;;;0.90;0.90;;;17.40;71.80;;;;;;5052868;28;20068;-47
2021/05/14 01:34:19;;;;;;;1.15;1.05;;;17.30;71.80;;;;;;5053081;28;20045;-47
2021/05/14 01:36:45;;;;;;;0.93;0.93;;;17.30;71.70;;;;;;5054752;28;20489;-48
2021/05/14 01:39:23;;;;;;;1.17;1.08;;;17.40;71.90;;;;;;5055057;28;20517;-50
2021/05/14 01:41:49;;;;;;;1.08;1.05;;;17.40;71.80;;;;;;5052271;28;20481;-46
2021/05/14 01:44:15;;;;;;;1.30;1.20;;;17.30;71.80;;;;;;5053916;28;20198;-48
2021/05/14 01:46:41;;;;;;;1.17;1.08;;;17.30;71.80;;;;;;5054586;28;20052;-48
2021/05/14 01:49:07;;;;;;;1.23;1.13;;;17.30;71.80;;;;;;5054375;28;20049;-48
2021/05/14 01:51:33;;;;;;;1.73;1.20;;;17.30;71.80;;;;;;5054178;28;20052;-47
2021/05/14 01:53:59;;;;;;;0.90;0.80;;;17.30;71.80;;;;;;5051323;28;20076;-45
2021/05/14 01:56:25;;;;;;;1.33;1.20;;;17.30;71.80;;;;;;5033841;28;20053;-47
2021/05/14 01:58:52;;;;;;;1.50;0.85;;;17.30;71.80;;;;;;5033923;28;20617;-50
2021/05/14 02:01:19;;;;;;;1.38;1.08;;;17.40;71.80;;;;;;5033331;28;20120;-50
2021/05/14 02:03:45;;;;;;;1.00;0.90;;;17.30;71.80;;;;;;5034979;28;20107;-49
2021/05/14 02:06:11;;;;;;;1.10;1.00;;;17.30;71.80;;;;;;5033997;28;20060;-50
2021/05/14 02:08:40;;;;;;;1.13;1.02;;;17.30;71.80;;;;;;5033585;28;20132;-47
2021/05/14 02:11:09;;;;;;;1.20;1.10;;;17.30;71.80;;;;;;5033578;28;20053;-47
2021/05/14 02:13:37;;;;;;;1.20;1.10;;;17.30;71.80;;;;;;5034627;28;20053;-50
2021/05/14 02:16:04;;;;;;;1.02;0.90;;;17.40;71.80;;;;;;5033881;28;20076;-48
2021/05/14 02:18:30;;;;;;;1.00;0.98;;;17.30;71.80;;;;;;5033666;28;20103;-49
2021/05/14 02:20:56;;;;;;;0.95;0.95;;;17.30;71.80;;;;;;5033582;28;20140;-49
2021/05/14 02:23:21;;;;;;;1.10;1.00;;;17.20;71.70;;;;;;5033442;28;20128;-46
2021/05/14 02:25:47;;;;;;;1.10;1.00;;;17.30;71.80;;;;;;5034513;28;20045;-49
2021/05/14 02:28:13;;;;;;;1.10;1.00;;;17.30;71.80;;;;;;5032919;28;20098;-50
2021/05/14 02:30:40;;;;;;;1.63;1.02;;;17.30;72.50;;;;;;5033475;28;20405;-46
2021/05/14 02:33:07;;;;;;;1.23;0.93;;;17.30;71.80;;;;;;5033398;28;20045;-50
2021/05/14 02:35:34;;;;;;;0.73;0.73;;;17.20;71.80;;;;;;5034354;28;20049;-48
2021/05/14 02:37:59;;;;;;;0.98;0.98;;;17.30;71.80;;;;;;5033102;28;20049;-48
2021/05/14 02:40:26;;;;;;;0.88;0.88;;;17.30;71.90;;;;;;5033007;28;20187;-49
2021/05/14 02:42:52;;;;;;;0.80;0.80;;;17.30;71.90;;;;;;5032602;28;20486;-48
2021/05/14 02:45:18;;;;;;;1.05;0.95;;;17.30;71.80;;;;;;5033993;28;20076;-49
2021/05/14 02:47:44;;;;;;;0.77;0.77;;;17.20;71.80;;;;;;5033238;28;20049;-48
2021/05/14 02:50:11;;;;;;;1.45;1.10;;;17.20;71.80;;;;;;5032863;28;20041;-48
2021/05/14 02:52:37;;;;;;;1.05;0.98;;;17.30;71.90;;;;;;5033264;28;20141;-47
2021/05/14 02:55:04;;;;;;;2.97;0.98;;;17.10;71.80;;;;;;5015272;28;20135;-48
2021/05/14 02:57:30;;;;;;;1.05;0.95;;;17.20;71.80;;;;;;5033914;28;20095;-47
2021/05/14 02:59:56;;;;;;;0.90;0.90;;;17.30;71.90;;;;;;5052692;28;20052;-45
2021/05/14 03:02:22;;;;;;;0.98;0.98;;;17.30;71.90;;;;;;5052839;28;20076;-45
2021/05/14 03:04:48;;;;;;;1.50;0.90;;;17.20;71.80;;;;;;5052652;28;20497;-47
2021/05/14 03:07:14;;;;;;;1.17;1.08;;;17.30;71.90;;;;;;5051201;28;20056;-46
2021/05/14 03:09:40;;;;;;;1.00;0.90;;;17.20;71.80;;;;;;5052519;28;20421;-48
2021/05/14 03:12:06;;;;;;;1.17;1.00;;;17.20;71.80;;;;;;5052186;28;20452;-45
2021/05/14 03:14:31;;;;;;;0.77;0.77;;;17.20;71.90;;;;;;5051865;28;20057;-45
2021/05/14 03:16:59;;;;;;;1.08;1.00;;;17.20;71.80;;;;;;5051016;28;20048;-43
2021/05/14 03:19:25;;;;;;;0.90;0.80;;;17.20;71.80;;;;;;5052507;28;20049;-46
2021/05/14 03:21:50;;;;;;;1.35;0.93;;;17.20;71.80;;;;;;5052631;28;20053;-47
2021/05/14 03:24:16;;;;;;;0.80;0.80;;;17.20;71.90;;;;;;5052601;28;20045;-46
2021/05/14 03:26:42;;;;;;;1.67;1.27;;;17.30;72.00;;;;;;5052476;28;20478;-49
2021/05/14 03:29:08;;;;;;;1.00;0.93;;;17.10;71.80;;;;;;5050223;28;20049;-51
2021/05/14 03:31:33;;;;;;;0.90;0.80;;;17.20;71.90;;;;;;5052739;28;20052;-49
2021/05/14 03:33:59;;;;;;;0.98;0.98;;;17.20;71.90;;;;;;5052283;28;20053;-46
2021/05/14 03:36:25;;;;;;;1.17;1.02;;;17.20;71.90;;;;;;5052273;28;20060;-49
2021/05/14 03:38:51;;;;;;;1.23;0.88;;;17.20;71.90;;;;;;5048230;28;20405;-48
2021/05/14 03:41:30;;;;;;;1.27;1.17;;;17.20;71.90;;;;;;5031763;28;20142;-45
2021/05/14 03:43:56;;;;;;;0.80;0.70;;;17.20;71.90;;;;;;5031275;28;20049;-47
2021/05/14 03:46:21;;;;;;;0.73;0.73;;;17.20;71.90;;;;;;5031489;28;20049;-43
2021/05/14 03:48:47;;;;;;;1.10;1.00;;;17.20;71.90;;;;;;5032051;28;20410;-45
2021/05/14 03:51:13;;;;;;;0.80;0.80;;;17.10;71.80;;;;;;5037216;28;20512;-45
2021/05/14 03:53:39;;;;;;;0.80;0.68;;;17.20;72.60;;;;;;5052206;28;20438;-47
2021/05/14 03:56:05;;;;;;;0.73;0.73;;;17.20;71.90;;;;;;5052147;28;20053;-47
2021/05/14 03:58:31;;;;;;;1.23;0.90;;;17.20;72.00;;;;;;5051905;28;20493;-45
2021/05/14 04:00:56;;;;;;;1.10;1.00;;;17.10;71.90;;;;;;5049937;28;20049;-45
2021/05/14 04:03:23;;;;;;;0.95;0.90;;;17.20;71.90;;;;;;5051537;28;20053;-46
2021/05/14 04:05:49;;;;;;;1.25;0.85;;;17.20;71.90;;;;;;5052216;28;20508;-45
2021/05/14 04:08:15;;;;;;;1.00;0.90;;;17.20;71.90;;;;;;5052194;28;20119;-46
2021/05/14 04:16:07;;;;;;;1.67;0.93;;;17.20;72.00;;;;;;5031509;28;20121;-46
2021/05/14 04:18:36;;;;;;;0.90;0.80;;;17.10;71.90;;;;;;5032071;28;20069;-48
2021/05/14 04:21:03;;;;;;;1.65;1.10;;;17.10;71.90;;;;;;5031941;28;20192;-44
2021/05/14 04:23:29;;;;;;;0.77;0.77;;;17.10;71.90;;;;;;5033191;28;20144;-45
2021/05/14 04:25:55;;;;;;;1.50;0.90;;;17.10;71.90;;;;;;5035351;28;20187;-48
2021/05/14 04:28:21;;;;;;;1.10;1.00;;;17.20;71.90;;;;;;5035703;28;20046;-45
2021/05/14 04:30:46;;;;;;;0.95;0.95;;;17.10;71.90;;;;;;5035456;28;20072;-45
2021/05/14 04:33:12;;;;;;;1.10;1.00;;;17.20;72.00;;;;;;5035639;28;20045;-45
2021/05/14 04:35:38;;;;;;;0.95;0.88;;;17.20;72.00;;;;;;5036659;28;20140;-46
2021/05/14 04:38:03;;;;;;;0.90;0.90;;;17.10;71.90;;;;;;5035603;28;20060;-46
2021/05/14 04:40:29;;;;;;;1.55;0.68;;;17.10;71.90;;;;;;5035435;28;20501;-46
2021/05/14 04:43:02;;;;;;;0.65;0.65;;;17.10;71.90;;;;;;5035478;28;20085;-49
2021/05/14 04:45:28;;;;;;;1.17;0.90;;;17.10;71.90;;;;;;5036103;28;20057;-46
2021/05/14 04:47:54;;;;;;;1.35;0.90;;;17.20;72.00;;;;;;5017638;28;20099;-48
2021/05/14 04:50:20;;;;;;;1.17;0.88;;;17.10;71.90;;;;;;5017682;28;20136;-44
2021/05/14 04:52:46;;;;;;;1.08;0.80;;;17.10;71.90;;;;;;5035204;28;20408;-46
2021/05/14 04:55:13;;;;;;;1.38;0.85;;;17.10;72.00;;;;;;5035724;28;20084;-47
2021/05/14 04:57:39;;;;;;;1.25;0.90;;;17.10;72.00;;;;;;5040417;28;20040;-44
2021/05/14 05:00:06;;;;;;;1.05;0.80;;;17.10;71.90;;;;;;5053786;28;20529;-44
2021/05/14 05:02:33;;;;;;;1.00;0.90;;;17.10;72.00;;;;;;5055007;28;20044;-48
2021/05/14 05:05:00;;;;;;;1.00;0.90;;;17.20;72.00;;;;;;5055154;28;20052;-48
2021/05/14 05:07:26;;;;;;;0.90;0.90;;;17.10;72.00;;;;;;5035606;28;20055;-49
2021/05/14 05:09:52;;;;;;;1.13;0.90;;;17.10;72.00;;;;;;5054452;28;20045;-49
2021/05/14 05:12:18;;;;;;;1.30;0.98;;;17.10;72.00;;;;;;5054787;28;20071;-46
2021/05/14 05:14:43;;;;;;;1.08;0.93;;;17.10;72.00;;;;;;5054864;28;20049;-49
2021/05/14 05:17:18;;;;;;;1.83;1.10;;;17.10;72.00;;;;;;5052843;28;20049;-44
2021/05/14 05:19:44;;;;;;;1.88;0.60;;;17.10;72.00;;;;;;5054834;28;20448;-46
2021/05/14 05:22:09;;;;;;;1.55;0.90;;;17.10;72.00;;;;;;5054593;28;20045;-46
2021/05/14 05:24:35;;;;;;;0.80;0.80;;;17.10;72.00;;;;;;5054520;28;20416;-46
2021/05/14 05:27:01;;;;;;;1.15;0.82;;;17.10;72.00;;;;;;5055007;28;20493;-44
2021/05/14 05:29:27;;;;;;;1.02;0.80;;;17.10;72.00;;;;;;5053363;28;20489;-47
2021/05/14 05:31:52;;;;;;;1.02;1.00;;;17.10;72.00;;;;;;5054157;28;20044;-50
2021/05/14 05:34:18;;;;;;;1.10;0.95;;;17.10;72.00;;;;;;5054695;28;20507;-47
2021/05/14 05:36:44;;;;;;;1.48;1.00;;;17.10;72.00;;;;;;5053326;28;20055;-48
2021/05/14 05:39:10;;;;;;;1.15;0.90;;;17.10;72.00;;;;;;5052401;28;20091;-50
2021/05/14 05:41:36;;;;;;;1.13;1.00;;;17.10;72.00;;;;;;5054912;28;20052;-47
2021/05/14 05:44:02;;;;;;;1.70;0.88;;;17.10;72.00;;;;;;5055193;28;20477;-47
2021/05/14 05:46:28;;;;;;;1.08;0.80;;;17.10;72.00;;;;;;5054677;28;20049;-44
2021/05/14 05:48:53;;;;;;;1.00;0.90;;;17.10;72.00;;;;;;5052673;28;20051;-48
2021/05/14 05:51:19;;;;;;;1.15;0.93;;;16.90;71.90;;;;;;5054780;28;20087;-45
2021/05/14 05:53:45;;;;;;;0.63;0.63;;;17.10;72.00;;;;;;5054892;28;20049;-45
2021/05/14 05:56:11;;;;;;;1.05;0.95;;;17.10;72.00;;;;;;5054352;28;20111;-47
2021/05/14 05:58:37;;;;;;;0.75;0.70;;;16.90;71.90;;;;;;5054300;28;20083;-46
2021/05/14 06:01:03;;;;;;;1.73;1.10;;;17.10;72.00;;;;;;5052302;28;20076;-44
2021/05/14 06:03:29;;;;;;;1.55;0.90;;;17.10;72.00;;;;;;5053583;28;20041;-46
2021/05/14 06:05:55;;;;;;;1.25;0.80;;;17.10;72.00;;;;;;5053900;28;20060;-48
2021/05/14 06:08:21;;;;;;;1.05;0.80;;;17.10;72.00;;;;;;5054094;28;20067;-46
2021/05/14 06:10:48;;;;;;;1.10;0.75;;;17.10;72.00;;;;;;5052147;28;20161;-45
2021/05/14 06:13:15;;;;;;;1.30;1.10;;;17.00;72.00;;;;;;5041599;28;20087;-48
2021/05/14 06:15:41;;;;;;;1.33;0.70;;;17.20;72.80;;;;;;5033761;28;20049;-47
2021/05/14 06:18:17;;;;;;;0.90;0.80;;;17.10;72.00;;;;;;5033426;28;20049;-44
2021/05/14 06:20:45;;;;;;;1.55;1.10;;;16.90;72.00;;;;;;5034424;28;20175;-42
2021/05/14 06:23:12;;;;;;;1.38;1.00;;;17.00;72.00;;;;;;5039399;28;20053;-43
2021/05/14 06:25:38;;;;;;;0.98;0.88;;;17.10;72.10;;;;;;5039815;28;20041;-44
2021/05/14 06:28:05;;;;;;;2.53;1.10;;;17.10;72.00;;;;;;5033856;28;20046;-45
2021/05/14 06:30:32;;;;;;;1.15;0.85;;;17.10;72.10;;;;;;5053692;28;20056;-45
2021/05/14 06:32:58;;;;;;;1.65;0.93;;;17.00;72.00;;;;;;5053106;28;20059;-45
2021/05/14 06:35:25;;;;;;;1.42;1.08;;;17.00;72.00;;;;;;5053139;28;20053;-44
2021/05/14 06:37:51;;;;;;;2.13;1.15;;;17.00;72.00;;;;;;5053335;28;20056;-44
2021/05/14 06:40:17;;;;;;;1.60;0.95;;;17.10;72.10;;;;;;5052484;28;20048;-47
2021/05/14 06:42:43;;;;;;;1.38;1.00;;;17.10;72.10;;;;;;5033240;28;20123;-43
2021/05/14 06:45:10;;;;;;;0.70;0.70;;;17.10;72.10;;;;;;5032990;28;20068;-44
2021/05/14 06:47:36;;;;;;;0.90;0.90;;;17.00;72.00;;;;;;5033041;28;20053;-44
2021/05/14 06:50:05;;;;;;;1.50;1.15;;;17.00;72.00;;;;;;5032684;28;20184;-50
2021/05/14 06:52:31;;;;;;;1.33;1.00;;;17.00;72.00;;;;;;5033242;28;20048;-44
2021/05/14 06:54:57;;;;;;;1.30;1.20;;;17.00;72.00;;;;;;5032998;28;20136;-43
2021/05/14 06:57:23;;;;;;;2.85;1.25;;;16.90;72.00;;;;;;5033202;28;20128;-45
2021/05/14 06:59:49;;;;;;;1.42;1.15;;;17.00;72.00;;;;;;5033024;28;20049;-43
2021/05/14 07:02:14;;;;;;;2.60;1.00;;;17.10;72.10;;;;;;5033007;28;20148;-44
2021/05/14 07:04:43;;;;;;;2.15;1.33;;;17.00;72.00;;;;;;5032438;28;20057;-46
2021/05/14 07:07:10;;;;;;;1.95;1.25;;;17.00;72.00;;;;;;5032996;28;20092;-42
2021/05/14 07:09:35;;;;;;;0.90;0.90;;;17.10;72.70;;;;;;5032762;28;20077;-43
2021/05/14 07:12:02;;;;;;;1.52;0.98;;;17.00;72.00;;;;;;5032550;28;20368;-48
2021/05/14 07:14:28;;;;;;;1.33;1.15;;;17.00;72.00;;;;;;5032577;28;20052;-43
2021/05/14 07:16:54;;;;;;;1.65;1.08;;;17.00;72.00;;;;;;5033771;28;20049;-45
2021/05/14 07:19:20;;;;;;;1.90;1.00;;;17.00;72.00;;;;;;5050802;28;20041;-44
2021/05/14 07:21:45;;;;;;;0.88;0.88;;;17.10;72.10;;;;;;5042270;28;20045;-42
2021/05/14 07:24:11;;;;;;;1.60;1.08;;;17.00;72.00;;;;;;5052275;28;20048;-44
2021/05/14 07:26:37;;;;;;;1.17;1.00;;;17.00;72.00;;;;;;5050369;28;20061;-43
2021/05/14 07:29:04;;;;;;;1.45;1.10;;;17.00;72.00;;;;;;5052345;28;20121;-46
2021/05/14 07:31:30;;;;;;;0.80;0.80;;;17.00;72.00;;;;;;5045730;28;20099;-45
2021/05/14 07:33:56;;;;;;;6.68;3.25;;;17.00;72.00;;;;;;5049743;28;20044;-43
2021/05/14 07:36:24;;;;;;;4.72;2.30;;;17.00;71.10;;;;;;5048545;28;20042;-43
2021/05/14 07:38:51;;;;;;;3.55;2.50;;;16.90;71.20;;;;;;5046096;28;20065;-44
2021/05/14 07:41:16;;;;;;;5.80;2.80;;;16.80;71.10;;;;;;5050338;28;20049;-43
2021/05/14 07:43:42;;;;;;;6.15;2.83;;;16.90;71.00;;;;;;5050096;28;20052;-47
2021/05/14 07:46:09;;;;;;;4.63;2.20;;;16.80;71.00;;;;;;5039777;28;20088;-40
2021/05/14 07:48:35;;;;;;;4.07;2.10;;;16.90;71.10;;;;;;5046901;28;20060;-41
2021/05/14 07:51:01;;;;;;;3.05;2.28;;;16.80;71.00;;;;;;5051528;28;20065;-43
2021/05/14 07:53:26;;;;;;;4.25;2.20;;;16.90;71.10;;;;;;5051848;28;20535;-46
2021/05/14 07:55:52;;;;;;;3.15;2.03;;;16.90;71.10;;;;;;5035649;28;20042;-43
2021/05/14 07:58:20;;;;;;;3.08;2.28;;;16.80;71.10;;;;;;5033536;28;20119;-41
2021/05/14 08:00:48;;;;;;;3.65;2.55;;;17.00;71.30;;;;;;5042936;28;20566;-46
2021/05/14 08:03:14;;;;;;;2.10;1.90;;;16.90;71.30;;;;;;5042577;28;20493;-46
2021/05/14 08:05:46;;;;;;;2.78;2.10;;;16.90;71.30;;;;;;5037982;28;20057;-48
2021/05/14 08:08:15;;;;;;;4.53;2.60;;;16.90;71.30;;;;;;5041002;28;20042;-44
2021/05/14 08:10:46;;;;;;;5.10;2.30;;;16.90;71.40;;;;;;5058218;28;20055;-49
2021/05/14 08:13:12;;;;;;;7.18;3.15;;;16.90;71.40;;;;;;5057845;28;20048;-45
2021/05/14 08:15:41;;;;;;;4.75;2.60;;;16.90;70.70;;;;;;5054537;28;20044;-50
2021/05/14 08:18:07;;;;;;;9.32;3.05;;;16.80;70.60;;;;;;5057856;28;20052;-43
2021/05/14 08:20:33;;;;;;;6.45;3.03;;;16.80;70.60;;;;;;5057629;28;20041;-46
2021/05/14 08:22:59;;;;;;;5.85;2.90;;;16.80;70.70;;;;;;5057964;28;20053;-43
2021/05/14 08:25:25;;;;;;;7.85;2.90;;;16.80;70.70;;;;;;5045954;28;20148;-44
2021/05/14 08:27:50;;;;;;;8.88;2.70;;;16.80;70.80;;;;;;5041759;28;20040;-39
2021/05/14 08:30:17;;;;;;;5.28;2.63;;;16.80;70.80;;;;;;5057582;28;20045;-41
2021/05/14 08:32:43;;;;;;;4.13;2.50;;;16.80;71.00;;;;;;5057957;28;20485;-44
2021/05/14 08:35:10;;;;;;;4.38;2.53;;;16.80;71.00;;;;;;5054397;28;20049;-47
2021/05/14 08:37:37;;;;;;;3.63;2.65;;;16.80;71.10;;;;;;5039290;28;20060;-44
2021/05/14 08:40:07;;;;;;;3.50;2.33;;;16.80;71.10;;;;;;5055651;28;20445;-40
2021/05/14 08:42:38;;;;;;;4.75;2.30;;;16.80;71.20;;;;;;5056088;28;20048;-41
2021/05/14 08:45:24;;;;;;;4.57;2.35;;;16.80;71.30;;;;;;5041564;28;20053;-41
2021/05/14 08:47:54;;;;;;;3.08;2.25;;;16.80;71.30;;;;;;5057788;28;20110;-44
2021/05/14 08:50:20;;;;;;;7.55;2.83;;;16.80;71.40;;;;;;5041869;28;20180;-43
2021/05/14 08:52:46;;;;;;;4.97;2.45;;;16.90;71.40;;;;;;5037184;28;20081;-41
2021/05/14 08:55:13;;;;;;;3.15;2.10;;;16.80;71.40;;;;;;5051524;28;20045;-42
2021/05/14 08:57:40;;;;;;;2.53;2.08;;;16.80;71.50;;;;;;5055776;28;20066;-43
2021/05/14 09:00:10;;;;;;;4.63;2.55;;;16.80;71.50;;;;;;5057312;28;20127;-39
2021/05/14 09:02:41;;;;;;;2.47;2.20;;;16.80;71.50;;;;;;5056678;28;20110;-42
2021/05/14 09:05:23;;;;;;;3.80;2.28;;;16.80;71.50;;;;;;5057489;28;20051;-45
2021/05/14 09:07:55;;;;;;;2.40;2.20;;;16.80;71.50;;;;;;5056049;28;20041;-41
2021/05/14 09:10:23;;;;;;;4.63;2.13;;;16.80;71.50;;;;;;5055954;28;20516;-43
2021/05/14 09:12:52;;;;;;;4.65;2.13;;;16.80;71.60;;;;;;5034293;28;20480;-41
2021/05/14 09:15:34;;;;;;;3.15;1.85;;;16.70;71.50;;;;;;5034150;28;20077;-42
2021/05/14 09:18:25;;;;;;;4.45;2.85;;;16.80;70.50;;;;;;5031137;28;20054;-43
2021/05/14 09:20:56;;;;;;;4.60;2.78;;;16.70;70.90;;;;;;5045268;28;20090;-43
2021/05/14 09:23:27;;;;;;;7.45;3.20;;;16.70;71.00;;;;;;5034426;28;20158;-44
2021/05/14 09:25:59;;;;;;;5.93;2.88;;;16.70;71.00;;;;;;5049274;28;20052;-42
2021/05/14 09:28:36;;;;;;;2.53;2.20;;;16.80;71.00;;;;;;5052742;28;20049;-42
2021/05/14 09:31:18;;;;;;;4.90;2.60;;;16.70;70.90;;;;;;5044643;28;20049;-45
2021/05/14 09:34:01;;;;;;;3.88;2.28;;;16.70;70.90;;;;;;5039347;28;20049;-41
2021/05/14 09:36:34;;;;;;;3.83;2.25;;;16.80;71.00;;;;;;5054465;28;20136;-43
2021/05/14 09:39:01;;;;;;;4.75;2.95;;;16.80;71.00;;;;;;5046411;28;20133;-44
2021/05/14 09:41:41;;;;;;;4.75;2.33;;;16.80;71.10;;;;;;5034690;28;20046;-43
2021/05/14 09:44:10;;;;;;;4.38;2.25;;;16.80;71.10;;;;;;5038661;28;20049;-41
2021/05/14 09:46:43;;;;;;;2.92;2.30;;;16.80;71.10;;;;;;5034313;28;20080;-41
2021/05/14 09:49:17;;;;;;;4.45;2.47;;;16.80;71.10;;;;;;5034364;28;20438;-43
2021/05/14 09:51:55;;;;;;;4.55;3.00;;;16.80;71.10;;;;;;5034311;28;20046;-42
2021/05/14 09:54:33;;;;;;;3.15;2.38;;;16.80;71.10;;;;;;5034949;28;20046;-41
2021/05/14 09:59:59;;;;;;;4.22;2.67;;;16.80;71.30;;;;;;5054130;28;20558;-44
2021/05/14 10:02:37;;;;;;;3.08;2.10;;;16.80;71.20;;;;;;5036078;28;20053;-42
2021/05/14 10:05:11;;;;;;;3.92;2.40;;;16.80;71.30;;;;;;5033887;28;20041;-44
2021/05/14 10:07:37;;;;;;;6.13;2.67;;;16.90;71.30;;;;;;5045902;28;20044;-37
2021/05/14 10:10:07;;;;;;;4.43;2.30;;;16.90;71.30;;;;;;5048315;28;20136;-39
2021/05/14 10:12:35;;;;;;;4.38;2.45;;;16.80;71.30;;;;;;5053120;28;20045;-44
2021/05/14 10:15:03;;;;;;;3.92;2.25;;;16.80;71.30;;;;;;5043106;28;20492;-37
2021/05/14 10:17:30;;;;;;;3.88;2.28;;;16.90;71.30;;;;;;5045102;28;20481;-40
2021/05/14 10:19:58;;;;;;;2.58;2.00;;;16.80;71.30;;;;;;5048505;28;20055;-38
2021/05/14 10:22:36;;;;;;;4.20;2.28;;;16.90;71.30;;;;;;5032329;28;20049;-40
2021/05/14 10:25:07;;;;;;;5.35;3.10;;;16.90;71.40;;;;;;5045023;28;20111;-38
2021/05/14 10:27:45;;;;;;;11.10;3.25;;;16.90;71.20;;;;;;5052055;28;20144;-39
2021/05/14 10:30:11;;;;;;;4.90;2.83;;;16.80;70.60;;;;;;5048070;28;20045;-42
2021/05/14 10:32:42;;;;;;;7.10;3.25;;;16.80;70.60;;;;;;5050763;28;20463;-39
2021/05/14 10:35:11;;;;;;;3.90;3.30;;;16.80;70.50;;;;;;5052432;28;20370;-38
2021/05/14 10:38:01;;;;;;;7.03;2.72;;;16.80;70.60;;;;;;5052645;28;20496;-39
2021/05/14 10:42:56;;;;;;;6.47;3.17;;;16.80;70.60;;;;;;5032778;28;20056;-43
2021/05/14 10:45:39;;;;;;;5.03;2.90;;;16.80;70.70;;;;;;5039098;28;20091;-43
2021/05/14 10:48:18;;;;;;;3.95;2.67;;;16.80;70.70;;;;;;5052882;28;20140;-43
2021/05/14 10:50:47;;;;;;;3.28;2.53;;;16.70;70.70;;;;;;5033225;28;20044;-41
2021/05/14 10:53:30;;;;;;;4.65;3.00;;;16.80;70.80;;;;;;5037474;28;20084;-44
2021/05/14 10:56:16;;;;;;;3.50;2.53;;;16.80;70.90;;;;;;5033035;28;20058;-43
2021/05/14 10:58:47;;;;;;;5.25;2.40;;;16.80;70.90;;;;;;5032856;28;20077;-44
2021/05/14 11:01:33;;;;;;;3.00;2.60;;;16.80;71.00;;;;;;5033200;28;20045;-47
2021/05/14 11:04:00;;;;;;;3.03;2.50;;;16.80;71.00;;;;;;5034226;28;20060;-45
2021/05/14 11:06:41;;;;;;;5.00;2.58;;;16.80;71.00;;;;;;5032725;28;20095;-44
2021/05/14 11:09:10;;;;;;;4.07;2.70;;;16.80;71.10;;;;;;5032630;28;20148;-45
2021/05/14 11:12:03;;;;;;;3.80;2.40;;;16.80;71.10;;;;;;5042414;28;20051;-43
2021/05/14 11:14:47;;;;;;;2.58;2.03;;;16.80;71.10;;;;;;5049405;28;20060;-39
2021/05/14 11:17:17;;;;;;;2.70;2.50;;;16.80;71.20;;;;;;5050358;28;20503;-47
2021/05/14 11:19:50;;;;;;;2.67;2.30;;;16.80;71.10;;;;;;5052409;28;20052;-42
2021/05/14 11:22:35;;;;;;;2.95;2.17;;;16.90;71.20;;;;;;5037411;28;20053;-43
2021/05/14 11:25:13;;;;;;;3.53;2.40;;;16.90;71.30;;;;;;5032845;28;20401;-40
2021/05/14 11:27:38;;;;;;;2.80;2.20;;;16.90;71.30;;;;;;5032257;28;20695;-43
2021/05/14 11:30:15;;;;;;;2.60;2.20;;;16.90;71.30;;;;;;5032341;28;20042;-43
2021/05/14 11:32:44;;;;;;;3.50;2.30;;;16.90;71.30;;;;;;5033321;28;20049;-45
2021/05/14 11:35:19;;;;;;;3.17;2.50;;;16.90;71.30;;;;;;5051562;28;20049;-42
2021/05/14 11:37:52;;;;;;;;;;;16.90;71.30;;;;;;5048515;28;20160;-43
2021/05/14 11:40:25;;;;;;;4.53;2.15;;;16.90;71.30;;;;;;5059346;28;19964;-42
2021/05/14 11:43:02;;;;;;;3.33;2.10;;;16.90;71.30;;;;;;5051279;28;20049;-43
2021/05/14 11:45:48;;;;;;;3.13;2.42;;;16.90;71.30;;;;;;5051060;28;20049;-39
2021/05/14 11:48:34;;;;;;;3.30;2.30;;;16.90;71.30;;;;;;5036709;28;20049;-43
2021/05/14 11:51:00;;;;;;;2.72;2.53;;;16.90;71.40;;;;;;5051522;28;20056;-41
2021/05/14 11:53:26;;;;;;;2.45;2.00;;;16.90;71.40;;;;;;5051359;28;20408;-39
2021/05/14 11:55:54;;;;;;;2.70;2.10;;;16.90;71.40;;;;;;5051436;28;20148;-43
2021/05/14 11:58:20;;;;;;;2.30;2.10;;;16.90;71.40;;;;;;5051173;28;20040;-42
2021/05/14 12:00:52;;;;;;;3.90;2.85;;;16.90;71.40;;;;;;5051456;28;20099;-43
2021/05/14 12:03:19;;;;;;;2.67;2.33;;;16.90;71.40;;;;;;5051443;28;20516;-41
2021/05/14 12:05:47;;;;;;;2.22;2.00;;;16.90;71.40;;;;;;5051059;28;20409;-42
2021/05/14 12:08:16;;;;;;;3.75;2.55;;;16.90;71.40;;;;;;5051541;28;20053;-39
2021/05/14 12:10:46;;;;;;;3.25;2.30;;;16.90;71.40;;;;;;5051064;28;20139;-41
2021/05/14 12:13:15;;;;;;;2.60;2.25;;;16.80;71.30;;;;;;5051107;28;20080;-40
2021/05/14 12:15:41;;;;;;;3.88;2.22;;;16.90;71.40;;;;;;5033148;28;20041;-39
2021/05/14 12:18:07;;;;;;;4.00;2.10;;;17.00;71.40;;;;;;5051449;28;20121;-45
2021/05/14 12:20:43;;;;;;;4.07;2.20;;;17.00;71.40;;;;;;5043872;28;20037;-41
2021/05/14 12:23:13;;;;;;;2.90;2.50;;;16.90;71.40;;;;;;5047649;28;20061;-41
2021/05/14 12:26:03;;;;;;;3.70;2.22;;;16.90;71.40;;;;;;5011138;28;20072;-40
2021/05/14 12:28:48;;;;;;;2.42;2.22;;;17.00;71.40;;;;;;5047013;28;20721;-39
2021/05/14 12:31:23;;;;;;;3.08;2.08;;;17.00;71.40;;;;;;5047542;28;20138;-42
2021/05/14 12:33:52;;;;;;;2.28;2.08;;;17.00;71.40;;;;;;5047382;28;20562;-39
2021/05/14 12:36:26;;;;;;;2.72;2.30;;;16.90;71.40;;;;;;5046141;28;20077;-42
2021/05/14 12:39:11;;;;;;;3.13;2.30;;;17.00;71.40;;;;;;5047062;28;20045;-41
2021/05/14 12:41:37;;;;;;;2.77;2.20;;;17.00;71.40;;;;;;5047370;28;20053;-41
2021/05/14 12:44:24;;;;;;;2.75;2.22;;;16.80;71.30;;;;;;5047185;28;20791;-41
2021/05/14 12:47:11;;;;;;;2.30;2.10;;;17.00;71.40;;;;;;5048847;28;20107;-41
2021/05/14 12:49:43;;;;;;;4.35;2.75;;;17.00;71.40;;;;;;5051210;28;20041;-41
2021/05/14 12:52:30;;;;;;;2.42;2.10;;;17.00;71.40;;;;;;5033447;28;20470;-42
2021/05/14 12:55:00;;;;;;;2.47;2.20;;;17.00;71.40;;;;;;5031238;28;20049;-39
2021/05/14 12:57:28;;;;;;;2.45;1.80;;;17.00;71.40;;;;;;5032003;28;20080;-42
2021/05/14 12:59:55;;;;;;;2.63;2.38;;;17.00;71.40;;;;;;5031699;28;20076;-39
2021/05/14 13:02:26;;;;;;;2.65;2.40;;;17.00;71.40;;;;;;5031461;28;20049;-45
2021/05/14 13:04:56;;;;;;;4.03;2.33;;;17.00;71.40;;;;;;5032110;28;20049;-40
2021/05/14 13:07:22;;;;;;;2.15;1.95;;;17.00;71.40;;;;;;5031520;28;20107;-41